createdAt,value
2018-03-03T00:01:09.565Z,64.60
2018-03-03T00:03:37.022Z,64.70
2018-03-03T00:06:04.470Z,64.60
2018-03-03T00:08:31.931Z,64.70
2018-03-03T00:10:59.381Z,64.60
2018-03-03T00:13:26.886Z,64.90
2018-03-03T00:15:54.332Z,64.40
2018-03-03T00:18:22.559Z,64.70
2018-03-03T00:20:50.018Z,64.50
2018-03-03T00:23:17.481Z,64.00
2018-03-03T00:25:44.930Z,64.20
2018-03-03T00:28:12.393Z,86.30
2018-03-03T00:30:40.253Z,63.70
2018-03-03T00:33:08.101Z,63.50
2018-03-03T00:35:35.558Z,77.60
2018-03-03T00:38:03.026Z,72.90
2018-03-03T00:40:30.464Z,64.10
2018-03-03T00:42:57.932Z,64.60
2018-03-03T00:45:25.385Z,64.60
2018-03-03T00:47:53.096Z,64.80
2018-03-03T00:50:20.547Z,65.00
2018-03-03T00:52:48.025Z,64.80
2018-03-03T00:55:15.478Z,64.80
2018-03-03T00:57:42.943Z,65.00
2018-03-03T01:00:11.179Z,65.40
2018-03-03T01:02:38.640Z,65.30
2018-03-03T01:05:06.097Z,65.80
2018-03-03T01:07:33.557Z,65.20
2018-03-03T01:10:01.014Z,65.10
2018-03-03T01:12:28.496Z,65.30
2018-03-03T01:14:56.734Z,65.60
2018-03-03T01:17:24.194Z,65.60
2018-03-03T01:19:51.665Z,65.80
2018-03-03T01:22:19.120Z,66.10
2018-03-03T01:24:46.568Z,91.80
2018-03-03T01:27:14.027Z,65.30
2018-03-03T01:29:41.486Z,96.70
2018-03-03T01:32:08.934Z,80.50
2018-03-03T01:34:37.161Z,66.00
2018-03-03T01:37:05.053Z,64.70
2018-03-03T01:39:32.478Z,65.40
2018-03-03T01:41:59.946Z,64.20
2018-03-03T01:44:27.392Z,64.90
2018-03-03T01:46:54.873Z,64.60
2018-03-03T01:49:22.342Z,64.70
2018-03-03T01:51:49.816Z,64.60
2018-03-03T01:54:17.274Z,64.70
2018-03-03T01:56:44.732Z,64.90
2018-03-03T01:59:12.186Z,64.80
2018-03-03T02:01:39.649Z,64.40
2018-03-03T02:04:07.105Z,64.10
2018-03-03T02:06:34.554Z,64.30
2018-03-03T02:09:02.013Z,64.50
2018-03-03T02:11:29.504Z,64.40
2018-03-03T02:13:56.957Z,64.20
2018-03-03T02:16:24.418Z,63.80
2018-03-03T02:18:52.634Z,64.20
2018-03-03T02:21:20.100Z,64.20
2018-03-03T02:23:47.572Z,64.10
2018-03-03T02:26:15.035Z,62.90
2018-03-03T02:28:42.498Z,63.40
2018-03-03T02:31:09.973Z,63.40
2018-03-03T02:33:38.209Z,63.00
2018-03-03T02:36:05.682Z,63.40
2018-03-03T02:38:33.913Z,63.40
2018-03-03T02:41:01.378Z,64.30
2018-03-03T02:43:28.850Z,64.20
2018-03-03T02:45:56.311Z,64.10
2018-03-03T02:48:23.779Z,64.10
2018-03-03T02:50:51.241Z,64.20
2018-03-03T02:53:18.717Z,64.20
2018-03-03T02:55:46.198Z,63.60
2018-03-03T02:58:14.427Z,63.90
2018-03-03T03:00:41.897Z,63.80
2018-03-03T03:03:09.363Z,63.90
2018-03-03T03:05:36.817Z,64.20
2018-03-03T03:08:04.279Z,64.20
2018-03-03T03:10:31.763Z,64.10
2018-03-03T03:12:59.238Z,64.00
2018-03-03T03:15:26.710Z,63.90
2018-03-03T03:17:54.182Z,64.40
2018-03-03T03:20:21.640Z,65.40
2018-03-03T03:22:49.118Z,64.20
2018-03-03T03:25:17.469Z,63.80
2018-03-03T03:27:44.931Z,62.80
2018-03-03T03:30:12.392Z,63.50
2018-03-03T03:32:39.854Z,64.00
2018-03-03T03:35:07.319Z,91.90
2018-03-03T03:37:34.787Z,87.30
2018-03-03T03:40:02.630Z,63.70
2018-03-03T03:42:30.094Z,64.20
2018-03-03T03:44:57.548Z,63.70
2018-03-03T03:47:25.034Z,63.70
2018-03-03T03:49:53.250Z,63.50
2018-03-03T03:52:20.776Z,63.30
2018-03-03T03:54:49.008Z,63.70
2018-03-03T03:57:18.035Z,64.10
2018-03-03T03:59:46.268Z,64.50
2018-03-03T04:02:13.732Z,64.30
2018-03-03T04:04:41.227Z,64.30
2018-03-03T04:07:09.445Z,63.90
2018-03-03T04:09:36.908Z,63.80
2018-03-03T04:12:04.381Z,63.90
2018-03-03T04:14:31.860Z,64.00
2018-03-03T04:16:59.314Z,64.00
2018-03-03T04:19:26.771Z,64.50
2018-03-03T04:21:54.251Z,65.10
2018-03-03T04:24:22.478Z,64.00
2018-03-03T04:26:49.932Z,64.00
2018-03-03T04:29:17.398Z,99.50
2018-03-03T04:31:44.854Z,94.50
2018-03-03T04:34:12.305Z,61.80
2018-03-03T04:36:39.769Z,83.20
2018-03-03T04:39:07.233Z,61.70
2018-03-03T04:41:35.457Z,62.00
2018-03-03T04:44:03.690Z,62.40
2018-03-03T04:46:31.151Z,63.00
2018-03-03T04:48:58.618Z,63.40
2018-03-03T04:51:26.848Z,63.80
2018-03-03T04:53:54.321Z,63.60
2018-03-03T04:56:21.781Z,64.00
2018-03-03T04:58:52.215Z,64.20
2018-03-03T05:01:23.650Z,64.30
2018-03-03T05:06:55.931Z,63.00
2018-03-03T05:09:23.396Z,62.30
2018-03-03T05:11:51.241Z,61.90
2018-03-03T05:14:29.453Z,61.50
2018-03-03T05:17:02.657Z,62.30
2018-03-03T05:22:39.287Z,62.10
2018-03-03T05:25:12.473Z,62.40
2018-03-03T05:27:47.543Z,62.40
2018-03-03T05:33:38.165Z,61.50
2018-03-03T05:36:08.077Z,62.30
2018-03-03T05:38:41.374Z,62.90
2018-03-03T05:41:11.321Z,63.30
2018-03-03T05:46:54.869Z,63.40
2018-03-03T05:49:23.582Z,63.50
2018-03-03T05:51:56.599Z,63.50
2018-03-03T05:54:29.817Z,67.40
2018-03-03T05:57:03.765Z,67.90
2018-03-03T05:59:36.849Z,63.00
2018-03-03T06:02:10.032Z,78.10
2018-03-03T06:04:43.321Z,62.80
2018-03-03T06:07:20.702Z,62.80
2018-03-03T06:09:58.862Z,63.40
2018-03-03T06:12:26.322Z,63.80
2018-03-03T06:14:53.799Z,64.60
2018-03-03T06:17:21.263Z,64.20
2018-03-03T06:19:48.744Z,64.70
2018-03-03T06:22:16.219Z,65.30
2018-03-03T06:24:43.674Z,65.20
2018-03-03T06:27:11.141Z,65.30
2018-03-03T06:29:38.605Z,65.40
2018-03-03T06:32:06.829Z,64.70
2018-03-03T06:34:34.284Z,63.80
2018-03-03T06:37:01.745Z,63.80
2018-03-03T06:39:29.207Z,63.80
2018-03-03T06:41:56.661Z,64.50
2018-03-03T06:44:24.117Z,65.00
2018-03-03T06:46:51.591Z,65.30
2018-03-03T06:49:19.040Z,65.80
2018-03-03T06:51:46.508Z,66.20
2018-03-03T06:54:13.973Z,66.40
2018-03-03T06:56:41.438Z,65.50
2018-03-03T06:59:08.907Z,65.20
2018-03-03T07:01:37.127Z,65.80
2018-03-03T07:04:04.581Z,94.10
2018-03-03T07:06:32.046Z,65.40
2018-03-03T07:08:59.504Z,98.10
2018-03-03T07:11:26.974Z,66.10
2018-03-03T07:13:54.421Z,66.30
2018-03-03T07:16:21.890Z,66.50
2018-03-03T07:18:49.348Z,66.80
2018-03-03T07:21:16.821Z,67.40
2018-03-03T07:23:44.273Z,67.70
2018-03-03T07:26:11.736Z,68.10
2018-03-03T07:28:39.206Z,68.30
2018-03-03T07:31:06.675Z,68.80
2018-03-03T07:33:34.926Z,68.90
2018-03-03T07:36:02.396Z,68.70
2018-03-03T07:38:30.608Z,68.20
2018-03-03T07:40:58.074Z,68.00
2018-03-03T07:43:25.538Z,67.60
2018-03-03T07:45:53.002Z,66.10
2018-03-03T07:48:20.459Z,65.60
2018-03-03T07:50:47.926Z,65.50
2018-03-03T07:53:15.386Z,65.60
2018-03-03T07:55:42.841Z,80.30
2018-03-03T07:58:10.300Z,91.80
2018-03-03T08:00:37.751Z,66.90
2018-03-03T08:03:05.212Z,96.80
2018-03-03T08:05:32.675Z,94.90
2018-03-03T08:08:00.126Z,89.90
2018-03-03T08:10:27.577Z,90.30
2018-03-03T08:12:55.033Z,67.60
2018-03-03T08:15:22.482Z,67.30
2018-03-03T08:17:50.713Z,67.30
2018-03-03T08:20:18.177Z,67.20
2018-03-03T08:22:45.626Z,67.50
2018-03-03T08:25:13.866Z,67.20
2018-03-03T08:27:42.088Z,68.00
2018-03-03T08:30:09.551Z,67.60
2018-03-03T08:32:36.999Z,67.30
2018-03-03T08:35:04.454Z,66.90
2018-03-03T08:37:31.911Z,66.00
2018-03-03T08:39:59.360Z,65.30
2018-03-03T08:42:26.834Z,65.20
2018-03-03T08:44:54.284Z,65.00
2018-03-03T08:47:21.747Z,65.70
2018-03-03T08:49:49.963Z,65.20
2018-03-03T08:52:17.418Z,65.20
2018-03-03T08:54:44.893Z,66.50
2018-03-03T08:57:12.738Z,63.00
2018-03-03T08:59:40.998Z,61.40
2018-03-03T09:02:08.448Z,60.20
2018-03-03T09:04:35.960Z,95.00
2018-03-03T09:07:03.365Z,59.70
2018-03-03T09:09:30.822Z,60.20
2018-03-03T09:11:58.270Z,68.70
2018-03-03T09:14:25.740Z,60.80
2018-03-03T09:16:53.191Z,60.90
2018-03-03T09:19:20.653Z,61.50
2018-03-03T09:21:48.110Z,61.40
2018-03-03T09:24:15.568Z,61.80
2018-03-03T09:26:43.033Z,61.50
2018-03-03T09:29:10.498Z,62.60
2018-03-03T09:31:37.965Z,61.50
2018-03-03T09:34:05.432Z,59.40
2018-03-03T09:36:32.890Z,59.20
2018-03-03T09:39:01.118Z,57.00
2018-03-03T09:41:28.586Z,56.90
2018-03-03T09:43:56.057Z,56.90
2018-03-03T09:46:23.525Z,56.70
2018-03-03T09:48:50.991Z,56.80
2018-03-03T09:51:18.450Z,55.90
2018-03-03T09:53:46.663Z,54.80
2018-03-03T09:56:14.126Z,54.70
2018-03-03T09:58:41.642Z,54.60
2018-03-03T10:01:09.874Z,54.00
2018-03-03T10:03:37.306Z,53.00
2018-03-03T10:06:05.065Z,71.10
2018-03-03T10:08:32.559Z,60.80
2018-03-03T10:11:00.099Z,58.70
2018-03-03T10:13:27.666Z,52.70
2018-03-03T10:15:55.197Z,52.80
2018-03-03T10:18:22.684Z,52.60
2018-03-03T10:20:50.190Z,52.00
2018-03-03T10:23:17.593Z,51.60
2018-03-03T10:25:45.051Z,50.90
2018-03-03T10:28:12.494Z,51.20
2018-03-03T10:30:39.954Z,51.70
2018-03-03T10:33:07.460Z,51.00
2018-03-03T10:35:34.860Z,52.00
2018-03-03T10:38:02.313Z,50.60
2018-03-03T10:40:29.770Z,50.20
2018-03-03T10:42:57.231Z,49.40
2018-03-03T10:45:24.724Z,49.40
2018-03-03T10:47:52.215Z,48.50
2018-03-03T10:50:19.768Z,49.50
2018-03-03T10:52:48.199Z,49.30
2018-03-03T10:55:15.752Z,49.20
2018-03-03T10:57:43.220Z,48.40
2018-03-03T11:00:10.847Z,52.90
2018-03-03T11:02:39.076Z,47.20
2018-03-03T11:05:06.881Z,50.70
2018-03-03T11:07:34.531Z,44.60
2018-03-03T11:10:02.758Z,46.60
2018-03-03T11:12:30.986Z,44.80
2018-03-03T11:14:59.222Z,45.10
2018-03-03T11:17:26.691Z,45.00
2018-03-03T11:19:54.178Z,45.70
2018-03-03T11:22:21.657Z,44.90
2018-03-03T11:24:49.101Z,44.80
2018-03-03T11:27:16.549Z,44.20
2018-03-03T11:29:44.013Z,44.30
2018-03-03T11:32:11.466Z,44.10
2018-03-03T11:34:38.932Z,44.80
2018-03-03T11:37:06.390Z,45.60
2018-03-03T11:39:33.847Z,46.70
2018-03-03T11:42:01.288Z,46.30
2018-03-03T11:44:28.752Z,47.00
2018-03-03T11:46:56.840Z,47.00
2018-03-03T11:49:24.326Z,47.70
2018-03-03T11:51:51.777Z,47.80
2018-03-03T11:54:19.245Z,48.00
2018-03-03T11:56:46.709Z,47.80
2018-03-03T11:59:14.188Z,47.40
2018-03-03T12:01:42.635Z,46.40
2018-03-03T12:04:10.134Z,46.90
2018-03-03T12:06:38.357Z,47.50
2018-03-03T12:09:06.624Z,47.70
2018-03-03T12:11:34.103Z,48.60
2018-03-03T12:14:03.119Z,48.60
2018-03-03T12:16:31.572Z,48.80
2018-03-03T12:18:59.083Z,48.60
2018-03-03T12:21:26.665Z,48.80
2018-03-03T12:23:54.122Z,49.10
2018-03-03T12:26:21.590Z,49.60
2018-03-03T12:28:49.055Z,49.10
2018-03-03T12:31:16.510Z,49.70
2018-03-03T12:33:43.969Z,49.90
2018-03-03T12:36:11.432Z,49.20
2018-03-03T12:38:38.890Z,49.00
2018-03-03T12:41:06.345Z,48.20
2018-03-03T12:43:33.807Z,48.80
2018-03-03T12:46:01.261Z,49.80
2018-03-03T12:48:28.722Z,49.80
2018-03-03T12:50:56.178Z,49.80
2018-03-03T12:53:23.640Z,49.90
2018-03-03T12:55:51.093Z,49.90
2018-03-03T12:58:18.554Z,50.10
2018-03-03T13:00:46.031Z,50.00
2018-03-03T13:03:14.255Z,50.10
2018-03-03T13:05:41.721Z,49.60
2018-03-03T13:08:09.581Z,49.40
2018-03-03T13:10:37.462Z,52.30
2018-03-03T13:13:05.016Z,52.70
2018-03-03T13:15:33.024Z,50.50
2018-03-03T13:18:01.616Z,50.90
2018-03-03T13:20:29.555Z,50.80
2018-03-03T13:22:57.077Z,50.70
2018-03-03T13:25:24.892Z,50.50
2018-03-03T13:27:52.421Z,50.60
2018-03-03T13:30:19.877Z,50.60
2018-03-03T13:32:47.337Z,51.10
2018-03-03T13:35:14.895Z,50.90
2018-03-03T13:37:42.445Z,50.90
2018-03-03T13:40:09.897Z,51.20
2018-03-03T13:42:37.352Z,51.00
2018-03-03T13:45:04.812Z,50.70
2018-03-03T13:47:32.281Z,51.20
2018-03-03T13:49:59.738Z,51.70
2018-03-03T13:52:27.208Z,51.70
2018-03-03T13:54:54.666Z,51.60
2018-03-03T13:57:22.587Z,51.70
2018-03-03T13:59:50.047Z,52.10
2018-03-03T14:02:17.502Z,51.50
2018-03-03T14:04:44.954Z,51.30
2018-03-03T14:07:12.406Z,51.40
2018-03-03T14:09:39.861Z,63.80
2018-03-03T14:12:07.713Z,51.60
2018-03-03T14:14:35.973Z,52.00
2018-03-03T14:17:04.201Z,51.60
2018-03-03T14:19:31.657Z,51.90
2018-03-03T14:21:59.121Z,52.10
2018-03-03T14:24:26.577Z,52.30
2018-03-03T14:26:54.038Z,52.40
2018-03-03T14:29:21.487Z,52.60
2018-03-03T14:31:48.945Z,52.20
2018-03-03T14:34:16.405Z,52.90
2018-03-03T14:36:43.859Z,53.20
2018-03-03T14:39:11.317Z,53.60
2018-03-03T14:41:38.777Z,53.80
2018-03-03T14:44:06.227Z,53.50
2018-03-03T14:46:33.689Z,53.60
2018-03-03T14:49:01.165Z,54.10
2018-03-03T14:51:28.619Z,54.30
2018-03-03T14:53:56.082Z,54.50
2018-03-03T14:56:24.310Z,54.80
2018-03-03T14:58:51.787Z,54.70
2018-03-03T15:01:19.238Z,54.60
2018-03-03T15:03:46.710Z,54.50
2018-03-03T15:06:14.161Z,54.40
2018-03-03T15:08:41.609Z,54.20
2018-03-03T15:11:09.484Z,54.40
2018-03-03T15:13:36.974Z,54.40
2018-03-03T15:16:04.806Z,57.00
2018-03-03T15:18:33.058Z,56.20
2018-03-03T15:21:00.534Z,55.60
2018-03-03T15:23:27.996Z,55.70
2018-03-03T15:25:55.466Z,55.50
2018-03-03T15:28:22.933Z,55.50
2018-03-03T15:30:50.400Z,55.60
2018-03-03T15:33:17.857Z,55.60
2018-03-03T15:35:45.355Z,55.40
2018-03-03T15:38:12.772Z,55.40
2018-03-03T15:40:40.236Z,55.40
2018-03-03T15:43:08.469Z,55.30
2018-03-03T15:45:35.921Z,55.30
2018-03-03T15:48:03.404Z,55.30
2018-03-03T15:50:30.853Z,55.30
2018-03-03T15:52:59.072Z,55.70
2018-03-03T15:55:27.284Z,55.90
2018-03-03T15:57:54.735Z,55.90
2018-03-03T16:00:22.188Z,55.90
2018-03-03T16:02:49.642Z,55.90
2018-03-03T16:05:17.088Z,58.10
2018-03-03T16:07:44.548Z,55.00
2018-03-03T16:10:12.002Z,86.90
2018-03-03T16:12:39.859Z,53.60
2018-03-03T16:15:07.300Z,77.60
2018-03-03T16:17:35.530Z,54.30
2018-03-03T16:20:03.754Z,53.80
2018-03-03T16:22:31.979Z,54.50
2018-03-03T16:24:59.438Z,54.50
2018-03-03T16:27:26.901Z,54.50
2018-03-03T16:29:54.353Z,54.80
2018-03-03T16:32:21.813Z,54.90
2018-03-03T16:34:49.255Z,55.30
2018-03-03T16:37:16.745Z,55.30
2018-03-03T16:39:44.206Z,55.50
2018-03-03T16:42:13.133Z,55.40
2018-03-03T16:44:40.585Z,55.80
2018-03-03T16:47:08.068Z,55.60
2018-03-03T16:49:35.524Z,55.60
2018-03-03T16:52:03.004Z,55.60
2018-03-03T16:54:30.470Z,55.70
2018-03-03T16:56:57.945Z,55.80
2018-03-03T16:59:25.401Z,55.80
2018-03-03T17:01:52.869Z,56.00
2018-03-03T17:04:20.312Z,56.00
2018-03-03T17:06:47.779Z,56.10
2018-03-03T17:09:15.230Z,55.70
2018-03-03T17:11:42.686Z,55.80
2018-03-03T17:14:10.532Z,56.00
2018-03-03T17:16:37.984Z,55.70
2018-03-03T17:19:06.972Z,56.30
2018-03-03T17:21:34.430Z,56.10
2018-03-03T17:24:01.904Z,56.30
2018-03-03T17:26:29.390Z,56.50
2018-03-03T17:28:57.614Z,56.70
2018-03-03T17:31:25.090Z,56.70
2018-03-03T17:33:52.541Z,56.90
2018-03-03T17:36:20.010Z,57.00
2018-03-03T17:38:47.465Z,57.10
2018-03-03T17:41:14.936Z,57.40
2018-03-03T17:43:42.402Z,57.60
2018-03-03T17:46:10.637Z,57.80
2018-03-03T17:48:38.097Z,57.80
2018-03-03T17:51:05.558Z,57.90
2018-03-03T17:53:33.026Z,58.30
2018-03-03T17:56:00.481Z,58.70
2018-03-03T17:58:27.949Z,58.70
2018-03-03T18:00:56.189Z,59.00
2018-03-03T18:03:23.657Z,59.00
2018-03-03T18:05:51.118Z,59.00
2018-03-03T18:08:18.593Z,59.30
2018-03-03T18:10:46.823Z,59.60
2018-03-03T18:13:16.735Z,81.10
2018-03-03T18:15:44.178Z,59.50
2018-03-03T18:18:11.650Z,68.60
2018-03-03T18:20:39.126Z,60.10
2018-03-03T18:23:08.114Z,61.10
2018-03-03T18:25:35.965Z,59.40
2018-03-03T18:28:03.442Z,61.10
2018-03-03T18:30:31.670Z,61.80
2018-03-03T18:32:59.181Z,61.80
2018-03-03T18:35:26.645Z,62.10
2018-03-03T18:37:54.125Z,61.90
2018-03-03T18:40:22.359Z,61.90
2018-03-03T18:42:49.848Z,61.90
2018-03-03T18:45:17.314Z,61.80
2018-03-03T18:47:44.902Z,61.20
2018-03-03T18:50:12.378Z,60.80
2018-03-03T18:52:40.129Z,60.70
2018-03-03T18:55:07.583Z,60.70
2018-03-03T18:57:35.052Z,60.70
2018-03-03T19:00:02.512Z,60.80
2018-03-03T19:02:29.971Z,61.50
2018-03-03T19:04:58.189Z,60.80
2018-03-03T19:07:26.413Z,60.90
2018-03-03T19:09:53.876Z,60.80
2018-03-03T19:12:21.341Z,60.70
2018-03-03T19:14:48.854Z,59.90
2018-03-03T19:17:16.858Z,59.80
2018-03-03T19:19:44.318Z,59.90
2018-03-03T19:22:11.769Z,59.80
2018-03-03T19:24:39.654Z,61.80
2018-03-03T19:27:07.842Z,61.60
2018-03-03T19:29:36.194Z,63.20
2018-03-03T19:32:03.671Z,63.00
2018-03-03T19:34:31.146Z,62.20
2018-03-03T19:36:58.856Z,61.40
2018-03-03T19:39:26.301Z,61.80
2018-03-03T19:41:53.766Z,64.10
2018-03-03T19:44:21.240Z,63.60
2018-03-03T19:46:48.710Z,64.00
2018-03-03T19:49:16.165Z,63.80
2018-03-03T19:51:43.629Z,63.50
2018-03-03T19:54:11.082Z,63.10
2018-03-03T19:56:38.541Z,62.70
2018-03-03T19:59:06.759Z,62.60
2018-03-03T20:01:34.230Z,62.50
2018-03-03T20:04:01.694Z,62.50
2018-03-03T20:06:29.144Z,62.70
2018-03-03T20:08:56.606Z,63.10
2018-03-03T20:11:24.048Z,63.10
2018-03-03T20:13:51.509Z,70.30
2018-03-03T20:16:18.967Z,71.60
2018-03-03T20:18:46.428Z,91.10
2018-03-03T20:21:13.884Z,64.30
2018-03-03T20:23:42.108Z,63.80
2018-03-03T20:26:09.969Z,63.00
2018-03-03T20:28:37.433Z,63.60
2018-03-03T20:31:04.894Z,64.40
2018-03-03T20:33:32.348Z,65.00
2018-03-03T20:35:59.810Z,65.40
2018-03-03T20:38:27.261Z,65.40
2018-03-03T20:40:54.713Z,65.40
2018-03-03T20:43:22.182Z,65.40
2018-03-03T20:45:49.645Z,65.90
2018-03-03T20:48:17.141Z,66.40
2018-03-03T20:50:44.589Z,66.40
2018-03-03T20:53:12.046Z,66.40
2018-03-03T20:55:39.508Z,65.90
2018-03-03T20:58:06.956Z,65.60
2018-03-03T21:00:34.413Z,65.70
2018-03-03T21:03:01.880Z,65.60
2018-03-03T21:05:29.328Z,66.00
2018-03-03T21:07:56.779Z,66.30
2018-03-03T21:10:24.237Z,66.40
2018-03-03T21:12:51.708Z,66.40
2018-03-03T21:15:19.156Z,65.40
2018-03-03T21:17:46.632Z,75.10
2018-03-03T21:20:14.096Z,64.70
2018-03-03T21:22:41.564Z,65.30
2018-03-03T21:25:09.032Z,64.60
2018-03-03T21:27:36.490Z,85.00
2018-03-03T21:30:03.954Z,65.00
2018-03-03T21:32:31.414Z,65.00
2018-03-03T21:34:58.866Z,65.30
2018-03-03T21:37:26.324Z,65.50
2018-03-03T21:39:53.812Z,67.10
2018-03-03T21:42:21.260Z,66.70
2018-03-03T21:44:49.493Z,67.70
2018-03-03T21:47:17.244Z,67.60
2018-03-03T21:49:44.694Z,68.00
2018-03-03T21:52:12.150Z,68.60
2018-03-03T21:54:39.621Z,69.90
2018-03-03T21:57:07.080Z,69.30
2018-03-03T21:59:34.557Z,69.60
2018-03-03T22:02:02.011Z,70.20
2018-03-03T22:04:29.481Z,70.60
2018-03-03T22:06:56.929Z,71.10
2018-03-03T22:09:24.384Z,71.50
2018-03-03T22:11:51.853Z,71.10
2018-03-03T22:14:19.310Z,70.70
2018-03-03T22:16:47.525Z,71.60
2018-03-03T22:19:14.984Z,70.90
2018-03-03T22:21:42.445Z,71.20
2018-03-03T22:24:09.901Z,87.30
2018-03-03T22:26:38.126Z,71.20
2018-03-03T22:29:05.980Z,71.30
2018-03-03T22:31:33.461Z,72.80
2018-03-03T22:34:01.685Z,73.70
2018-03-03T22:36:29.174Z,72.90
2018-03-03T22:38:56.647Z,72.80
2018-03-03T22:41:24.878Z,73.80
2018-03-03T22:43:52.373Z,72.70
2018-03-03T22:46:19.839Z,72.20
2018-03-03T22:48:47.325Z,72.50
2018-03-03T22:51:14.790Z,73.00
2018-03-03T22:53:42.250Z,72.80
2018-03-03T22:56:09.714Z,72.70
2018-03-03T22:58:37.168Z,72.70
2018-03-03T23:01:04.621Z,73.10
2018-03-03T23:03:32.087Z,73.30
2018-03-03T23:05:59.632Z,73.60
2018-03-03T23:08:27.042Z,73.70
2018-03-03T23:10:54.504Z,73.80
2018-03-03T23:13:22.726Z,73.70
2018-03-03T23:15:50.196Z,73.60
2018-03-03T23:18:17.647Z,73.00
2018-03-03T23:20:45.110Z,95.00
2018-03-03T23:23:12.574Z,73.00
2018-03-03T23:25:40.051Z,73.40
2018-03-03T23:28:07.514Z,74.20
2018-03-03T23:30:34.969Z,90.40
2018-03-03T23:33:02.440Z,74.10
2018-03-03T23:35:29.907Z,74.10
2018-03-03T23:37:58.146Z,74.00
2018-03-03T23:40:25.601Z,74.00
2018-03-03T23:42:53.062Z,74.40
2018-03-03T23:45:20.547Z,74.80
2018-03-03T23:47:48.778Z,74.20
2018-03-03T23:50:17.003Z,74.50
2018-03-03T23:52:45.227Z,74.80
2018-03-03T23:55:12.706Z,74.70
2018-03-03T23:57:40.163Z,74.80
